Meteo Giornale » Osservazioni meteo Stati Uniti (USA) » Evanston-Uninta Co Burns Fld
ore: 13:53 - Osservazioni Meteo Evanston-Uninta Co Burns Fld
Lat. 41° 16' N Lon. 111° 1' W Alt. 2183 metri s.l.m.
19 °C
Molto Nuvoloso
Temp. 24 Ore
9 °C
21 °C
Sud-Ovest
31.5 Km/h
Dew point 8 °C
Umidità 48 %
Visibilità 10 Km
Il sole sorge alle ore 06:50
Il sole tramonta alle ore 19:57
| Data e Ora | Cielo e Fenomeni | T °C | DP °C | Um. % | Pres. hPa | Vis. km | Vento km/h | |
|---|---|---|---|---|---|---|---|---|
| Oggi h: 13:53 | Molto Nuvoloso | 19 | 8 | 48 | 1022 | 10 | SO 31.5 | |
| Oggi h: 12:53 | Sereno | 20 | 8 | 45 | 1023 | 10 | SO 31.5 | |
| Oggi h: 11:53 | Sereno | 19 | 8 | 48 | 1023 | 10 | SO 27.8 | |
| Oggi h: 10:53 | Sereno | 18 | 8 | 51 | 1023 | 10 | SO 24 | |
| Oggi h: 09:53 | Sereno | 14 | 8 | 67 | 1023 | 10 | S/SO 7.4 | |
| Oggi h: 08:53 | Sereno | 12 | 8 | 76 | 1023 | 10 | N 0 | |
| Oggi h: 08:06 | Sereno | 11 | 8 | 81 | 1023 | 10 | N 5.5 | |
| Oggi h: 08:02 | Foschia | 11 | 8 | 81 | 1023 | 2 | N 5.5 | |
| Oggi h: 08:00 | Nebbia | 11 | 8 | 81 | 1023 | 2 | N 5.5 | |
| Oggi h: 07:53 | Sereno | 10 | 8 | 87 | 1023 | 11 | N 5.5 | |
| Oggi h: 06:53 | Sereno | 9 | 7 | 87 | 1022 | 11 | N 5.5 | |
| Oggi h: 05:53 | Sereno | 9 | 8 | 93 | 1022 | 11 | N 0 | |
| Oggi h: 05:33 | Sereno | 9 | 8 | 93 | 1022 | 11 | N 5.5 | |
| Oggi h: 05:25 | Nebbia | 10 | 8 | 87 | 1022 | 0 | N 5.5 | |
| Oggi h: 05:08 | Nebbia | 9 | 8 | 93 | 1022 | 2 | N 5.5 | |
| Oggi h: 05:01 | Foschia | 10 | 8 | 87 | 1022 | 2 | N 5.5 | |
| Oggi h: 04:53 | Foschia | 10 | 8 | 87 | 1022 | 6 | S 7.4 | |
| Oggi h: 03:53 | Coperto | 10 | 9 | 93 | 1022 | 10 | SO 9.3 | |
| Oggi h: 03:01 | Coperto | 10 | 9 | 93 | 1022 | 10 | S/SO 7.4 | |
| Oggi h: 02:53 | Coperto | 10 | 9 | 93 | 1022 | 13 | SO 7.4 | |
| Oggi h: 02:49 | Foschia | 10 | 9 | 93 | 1022 | 8 | SO 9.3 | |
| Oggi h: 02:33 | Molto Nuvoloso | 10 | 9 | 93 | 1022 | 10 | SO 7.4 | |
| Oggi h: 02:20 | Foschia | 10 | 9 | 93 | 1022 | 2 | SO 9.3 | |
| Oggi h: 01:53 | Molto Nuvoloso | 10 | 9 | 93 | 1023 | 10 | S 7.4 | |
| Oggi h: 01:44 | Molto Nuvoloso | 10 | 9 | 93 | 1023 | 10 | SO 9.3 | |
| Oggi h: 01:32 | Foschia | 10 | 9 | 93 | 1023 | 3 | S/SO 9.3 | |
| Oggi h: 00:53 | Coperto | 11 | 9 | 87 | 1023 | 10 | S/SO 7.4 | |
| Ieri h: 23:53 | Nuvoloso | 11 | 10 | 93 | 1023 | 10 | N 5.5 | |
| Ieri h: 22:53 | Molto Nuvoloso | 12 | 8 | 76 | 1024 | 10 | S/SE 7.4 | |
| Ieri h: 21:53 | Coperto | 12 | 10 | 87 | 1025 | 10 | E 9.3 | |
| Ieri h: 20:53 | Coperto | 12 | 9 | 81 | 1025 | 10 | SE 7.4 | |
| Ieri h: 19:53 | Coperto | 12 | 9 | 81 | 1024 | 10 | O 16.7 | |
| Ieri h: 19:34 | Coperto | 12 | 9 | 81 | 1024 | 10 | O 20.3 | |
| Ieri h: 18:53 | Nuvoloso | 14 | 10 | 76 | 1023 | 10 | S/SO 13 | |
| Ieri h: 17:53 | Coperto | 16 | 9 | 63 | 1023 | 10 | N 11.1 | |
| Ieri h: 17:39 | Pioggia | 16 | 8 | 58 | 1023 | 10 | E/NE 9.3 | |
| Ieri h: 17:30 | Temporale | 16 | 8 | 58 | 1023 | 5 | E/SE 18.5 | |
| Ieri h: 17:21 | Temporale | 15 | 8 | 62 | 1023 | 5 | S 13 | |
| Ieri h: 17:11 | Temporale | 15 | 9 | 67 | 1023 | 14 | E/SE 13 | |
| Ieri h: 16:53 | Coperto | 16 | 7 | 55 | 1023 | 10 | E/NE 13 | |
| Ieri h: 16:23 | Pioggia | 16 | 8 | 58 | 1023 | 10 | N/NE 20.3 | |
| Ieri h: 16:13 | Pioggia | 13 | 10 | 81 | 1023 | 8 | N 13 | |
| Ieri h: 16:04 | Pioggia | 16 | 8 | 58 | 1023 | 3 | N 0 | |
| Ieri h: 15:58 | Temporale | 15 | 8 | 62 | 1023 | 5 | N 7.4 | |
| Ieri h: 15:53 | Temporale | 14 | 9 | 71 | 1023 | 6 | S/SO 9.3 | |
| Ieri h: 15:46 | Temporale | 14 | 9 | 71 | 1023 | 6 | SE 16.7 | |
| Ieri h: 15:19 | Temporale | 19 | 6 | 42 | 1022 | 10 | E/NE 22.2 | |
| Ieri h: 15:06 | Temporale nelle vicinanze | 21 | 4 | 32 | 1022 | 10 | E 22.2 | |
| Ieri h: 14:53 | Temporale | 21 | 3 | 30 | 1023 | 10 | E/SE 22.2 | |
| Ieri h: 14:46 | Temporale | 21 | 5 | 35 | 1023 | 10 | E 18.5 | |
| Ieri h: 14:35 | Temporale nelle vicinanze | 19 | 5 | 39 | 1023 | 10 | E 18.5 | |



